Time;durP1;ratioP1;P1;durP2;ratioP2;P2;SDS_P1;SDS_P2;PMS_P1;PMS_P2;Temp;Humidity;BMP_temperature;BMP_pressure;BME280_temperature;BME280_humidity;BME280_pressure;Samples;Min_cycle;Max_cycle;Signal;HPM_P1;HPM_P2
2021/01/25 00:01:34;;;;;;;7.43;5.15;;;4.90;96.70;;;;;;4924166;28;20047;-68
2021/01/25 00:04:02;;;;;;;9.35;6.00;;;5.00;96.70;;;;;;4942448;28;20035;-68
2021/01/25 00:06:29;;;;;;;7.22;5.07;;;5.10;96.70;;;;;;4926000;29;20050;-68
2021/01/25 00:08:56;;;;;;;8.10;5.57;;;5.00;96.70;;;;;;4939275;28;20054;-68
2021/01/25 00:11:25;;;;;;;9.80;5.00;;;5.10;96.70;;;;;;4924487;28;20374;-68
2021/01/25 00:13:52;;;;;;;6.75;5.32;;;5.20;96.70;;;;;;4920641;28;20043;-68
2021/01/25 00:16:19;;;;;;;8.00;5.43;;;5.20;96.70;;;;;;4940483;28;20077;-68
2021/01/25 00:18:47;;;;;;;7.63;4.78;;;5.10;96.70;;;;;;4922233;28;20122;-68
2021/01/25 00:21:14;;;;;;;7.90;5.13;;;5.10;96.70;;;;;;4938911;28;20070;-68
2021/01/25 00:23:41;;;;;;;7.22;4.78;;;5.10;96.70;;;;;;4938130;28;20067;-68
2021/01/25 00:26:08;;;;;;;6.45;4.60;;;5.00;96.70;;;;;;4940548;28;20522;-68
2021/01/25 00:28:36;;;;;;;7.03;4.82;;;5.00;96.70;;;;;;4939489;28;20454;-68
2021/01/25 00:31:04;;;;;;;5.45;3.97;;;5.10;96.70;;;;;;4920960;29;20047;-68
2021/01/25 00:33:32;;;;;;;6.28;4.15;;;5.10;96.70;;;;;;4941655;28;20050;-69
2021/01/25 00:35:59;;;;;;;6.20;4.25;;;5.00;96.70;;;;;;4942633;28;20224;-68
2021/01/25 00:38:26;;;;;;;6.68;4.60;;;5.10;96.70;;;;;;4919609;28;20491;-68
2021/01/25 00:40:54;;;;;;;6.93;5.07;;;5.20;96.70;;;;;;4921076;29;20035;-68
2021/01/25 00:43:21;;;;;;;7.13;4.50;;;5.20;96.70;;;;;;4937206;28;20075;-68
2021/01/25 00:45:49;;;;;;;7.93;5.07;;;5.20;96.70;;;;;;4921719;29;20133;-68
2021/01/25 00:48:16;;;;;;;7.28;4.70;;;5.20;96.70;;;;;;4940569;28;20043;-68
2021/01/25 00:50:44;;;;;;;6.18;4.30;;;5.20;96.70;;;;;;4939236;28;20515;-68
2021/01/25 00:53:15;;;;;;;6.80;4.55;;;5.20;96.70;;;;;;4938947;28;20062;-68
2021/01/25 00:55:42;;;;;;;7.63;5.10;;;5.20;96.70;;;;;;4942170;28;20047;-68
2021/01/25 00:58:10;;;;;;;6.22;4.72;;;5.20;96.70;;;;;;4941440;28;20530;-68
2021/01/25 01:00:38;;;;;;;7.65;4.85;;;5.20;96.70;;;;;;4899848;29;20090;-68
2021/01/25 01:03:06;;;;;;;6.72;4.95;;;5.30;96.70;;;;;;4923631;28;20044;-68
2021/01/25 01:05:33;;;;;;;7.40;4.70;;;5.30;96.70;;;;;;4941556;28;20043;-68
2021/01/25 01:08:02;;;;;;;6.05;4.40;;;5.30;96.70;;;;;;4939328;28;20066;-68
2021/01/25 01:10:29;;;;;;;7.13;5.00;;;5.30;96.70;;;;;;4938318;28;20043;-68
2021/01/25 01:12:57;;;;;;;5.97;4.72;;;5.40;96.70;;;;;;4937466;28;20043;-68
2021/01/25 01:15:24;;;;;;;6.97;4.88;;;5.40;96.70;;;;;;4925148;28;20475;-68
2021/01/25 01:17:51;;;;;;;5.95;4.55;;;5.30;96.70;;;;;;4942180;29;20047;-68
2021/01/25 01:20:19;;;;;;;6.63;4.93;;;5.30;96.70;;;;;;4940201;28;20051;-68
2021/01/25 01:22:46;;;;;;;7.25;5.15;;;5.40;96.70;;;;;;4939080;28;20051;-68
2021/01/25 01:25:14;;;;;;;6.07;4.78;;;5.40;96.70;;;;;;4937270;28;20051;-68
2021/01/25 01:27:42;;;;;;;8.45;5.00;;;5.30;96.70;;;;;;4940739;28;20046;-68
2021/01/25 01:30:10;;;;;;;6.75;4.60;;;5.40;96.70;;;;;;4938906;28;20046;-68
2021/01/25 01:32:37;;;;;;;6.20;4.97;;;5.40;96.70;;;;;;4916867;28;20047;-68
2021/01/25 01:35:06;;;;;;;6.80;4.85;;;5.20;96.70;;;;;;4921020;29;20054;-69
2021/01/25 01:37:35;;;;;;;6.50;5.00;;;5.10;96.70;;;;;;4942384;28;20085;-68
2021/01/25 01:40:04;;;;;;;6.90;5.20;;;5.20;96.70;;;;;;4917709;28;20126;-68
2021/01/25 01:42:32;;;;;;;7.60;5.22;;;5.20;96.70;;;;;;4941188;28;20071;-68
2021/01/25 01:45:01;;;;;;;7.20;4.85;;;5.30;96.70;;;;;;4923451;28;20118;-68
2021/01/25 01:47:30;;;;;;;6.93;4.78;;;5.30;96.70;;;;;;4941223;28;20050;-68
2021/01/25 01:49:59;;;;;;;8.73;5.82;;;5.30;96.70;;;;;;4940145;28;20094;-68
2021/01/25 01:52:26;;;;;;;7.40;4.95;;;5.30;96.70;;;;;;4941762;28;20533;-68
2021/01/25 01:54:58;;;;;;;7.45;4.75;;;5.40;96.70;;;;;;4939340;28;20051;-68
2021/01/25 01:57:25;;;;;;;8.23;4.65;;;5.20;96.70;;;;;;4919247;28;20591;-68
2021/01/25 01:59:53;;;;;;;8.40;4.55;;;5.30;96.70;;;;;;4939933;28;20130;-68
2021/01/25 02:02:20;;;;;;;7.60;5.10;;;5.30;96.70;;;;;;4940863;28;20053;-68
2021/01/25 02:04:48;;;;;;;7.03;4.53;;;5.30;96.70;;;;;;4939188;28;20039;-68
2021/01/25 02:07:17;;;;;;;7.50;4.47;;;5.30;96.70;;;;;;4939938;28;20509;-68
2021/01/25 02:09:47;;;;;;;10.10;4.78;;;5.40;96.70;;;;;;4939392;28;20401;-68
2021/01/25 02:12:18;;;;;;;7.60;4.72;;;5.40;96.70;;;;;;4906315;29;20192;-68
2021/01/25 02:14:45;;;;;;;7.35;4.88;;;5.40;96.70;;;;;;4939357;28;20090;-68
2021/01/25 02:17:16;;;;;;;6.75;4.65;;;5.40;96.70;;;;;;4918952;28;20043;-68
2021/01/25 02:20:00;;;;;;;6.18;4.15;;;5.40;96.70;;;;;;4941080;28;20098;-68
2021/01/25 02:22:59;;;;;;;7.50;4.68;;;5.40;96.70;;;;;;4939630;28;20039;-68
2021/01/25 02:25:37;;;;;;;7.47;4.82;;;5.40;96.70;;;;;;4941158;28;20609;-68
2021/01/25 02:28:07;;;;;;;6.40;4.53;;;5.40;96.70;;;;;;4938146;28;20047;-68
2021/01/25 02:30:34;;;;;;;6.95;5.15;;;5.40;96.70;;;;;;4945697;28;20285;-69
2021/01/25 02:33:02;;;;;;;4.45;3.80;;;5.40;96.70;;;;;;4943775;28;20046;-69
2021/01/25 02:35:30;;;;;;;8.07;5.32;;;5.40;96.70;;;;;;4938374;28;20047;-69
2021/01/25 02:37:58;;;;;;;6.40;4.70;;;5.40;96.70;;;;;;4942914;28;20110;-69
2021/01/25 02:40:26;;;;;;;6.65;4.03;;;5.40;96.70;;;;;;4943382;28;20114;-69
2021/01/25 02:42:56;;;;;;;7.57;4.93;;;5.40;96.70;;;;;;4943919;28;20047;-69
2021/01/25 02:45:25;;;;;;;5.63;4.60;;;5.40;96.70;;;;;;4942001;28;20531;-69
2021/01/25 02:47:53;;;;;;;5.82;4.80;;;5.40;96.70;;;;;;4924548;29;20576;-69
2021/01/25 02:50:20;;;;;;;5.82;4.00;;;5.40;96.70;;;;;;4943642;28;20535;-69
2021/01/25 02:52:47;;;;;;;5.05;4.15;;;5.40;96.70;;;;;;4937353;28;20043;-69
2021/01/25 02:55:14;;;;;;;5.70;4.28;;;5.40;96.70;;;;;;4923679;29;20513;-69
2021/01/25 02:57:42;;;;;;;5.97;4.50;;;5.40;96.70;;;;;;4925951;28;20043;-69
2021/01/25 03:00:11;;;;;;;8.20;4.75;;;5.40;96.70;;;;;;4940315;28;20050;-69
2021/01/25 03:02:39;;;;;;;6.28;4.43;;;5.40;96.70;;;;;;4942005;28;20142;-69
2021/01/25 03:05:07;;;;;;;6.75;4.57;;;5.40;96.70;;;;;;4921302;29;20530;-69
2021/01/25 03:07:34;;;;;;;5.97;4.22;;;5.50;96.70;;;;;;4942482;28;20639;-69
2021/01/25 03:10:03;;;;;;;6.55;4.20;;;5.50;96.70;;;;;;4926668;28;20043;-69
2021/01/25 03:12:31;;;;;;;5.47;3.85;;;5.50;96.70;;;;;;4925746;29;20467;-69
2021/01/25 03:14:58;;;;;;;6.93;3.70;;;5.60;96.70;;;;;;4925020;29;20039;-69
2021/01/25 03:17:25;;;;;;;3.40;3.03;;;5.50;96.70;;;;;;4942653;28;20410;-69
2021/01/25 03:19:54;;;;;;;5.18;3.05;;;5.40;96.70;;;;;;4942157;28;20089;-69
2021/01/25 03:22:21;;;;;;;6.72;3.47;;;5.50;96.70;;;;;;4942259;28;20466;-69
2021/01/25 03:24:48;;;;;;;5.57;2.97;;;5.40;96.70;;;;;;4925942;29;20047;-69
2021/01/25 03:27:15;;;;;;;5.43;3.17;;;5.40;96.70;;;;;;4941387;28;20513;-69
2021/01/25 03:29:42;;;;;;;6.63;3.65;;;5.50;96.70;;;;;;4942760;28;20042;-69
2021/01/25 03:32:09;;;;;;;4.47;3.17;;;5.40;96.70;;;;;;4933551;28;20040;-69
2021/01/25 03:34:36;;;;;;;6.60;3.25;;;5.50;96.70;;;;;;4943269;28;20039;-69
2021/01/25 03:37:05;;;;;;;5.15;3.55;;;5.50;96.70;;;;;;4924401;28;20054;-69
2021/01/25 03:39:31;;;;;;;4.55;3.50;;;5.50;96.70;;;;;;4941958;28;20402;-69
2021/01/25 03:41:58;;;;;;;5.95;3.58;;;5.60;96.70;;;;;;4941501;28;20062;-69
2021/01/25 03:44:25;;;;;;;8.52;3.75;;;5.40;96.70;;;;;;4923361;29;20043;-69
2021/01/25 03:46:52;;;;;;;4.82;3.47;;;5.40;96.70;;;;;;4923976;28;20043;-69
2021/01/25 03:49:20;;;;;;;5.43;3.67;;;5.50;96.70;;;;;;4924633;29;20050;-69
2021/01/25 03:51:47;;;;;;;6.10;3.28;;;5.60;96.70;;;;;;4941265;28;20055;-69
2021/01/25 03:54:15;;;;;;;4.07;2.83;;;5.60;96.70;;;;;;4935866;28;20540;-68
2021/01/25 03:56:44;;;;;;;8.55;3.17;;;5.60;96.70;;;;;;4921717;28;20375;-69
2021/01/25 03:59:11;;;;;;;4.82;3.65;;;5.50;96.70;;;;;;4944318;29;20039;-69
2021/01/25 04:01:38;;;;;;;5.32;3.00;;;5.60;96.70;;;;;;4939192;28;20054;-69
2021/01/25 04:04:05;;;;;;;4.82;2.88;;;5.70;96.70;;;;;;4936461;28;20521;-69
2021/01/25 04:06:32;;;;;;;6.57;2.63;;;5.80;96.70;;;;;;4942226;28;20539;-69
2021/01/25 04:09:00;;;;;;;9.40;3.33;;;5.80;96.70;;;;;;4941338;28;20043;-76
2021/01/25 04:11:28;;;;;;;6.63;3.00;;;5.90;96.70;;;;;;4938896;28;20044;-69
2021/01/25 04:13:55;;;;;;;7.70;2.97;;;5.90;96.70;;;;;;4940731;28;20039;-69
2021/01/25 04:16:22;;;;;;;5.68;2.90;;;5.90;96.70;;;;;;4923356;29;20047;-69
2021/01/25 04:18:49;;;;;;;6.10;3.28;;;6.00;96.70;;;;;;4940919;28;20043;-69
2021/01/25 04:21:16;;;;;;;8.25;3.67;;;5.90;96.70;;;;;;4943009;28;20055;-69
2021/01/25 04:23:43;;;;;;;7.65;3.50;;;5.90;96.70;;;;;;4939357;28;20121;-69
2021/01/25 04:26:10;;;;;;;10.70;3.63;;;5.90;96.70;;;;;;4940846;28;20046;-69
2021/01/25 04:28:38;;;;;;;9.35;3.83;;;6.00;96.70;;;;;;4941071;28;20045;-69
2021/01/25 04:31:05;;;;;;;10.45;4.13;;;5.90;96.70;;;;;;4941748;28;20040;-69
2021/01/25 04:33:32;;;;;;;8.45;4.78;;;5.90;96.70;;;;;;4933704;28;20521;-69
2021/01/25 04:36:00;;;;;;;8.23;3.72;;;6.00;96.70;;;;;;4918054;29;20126;-69
2021/01/25 04:38:27;;;;;;;5.95;3.22;;;6.10;96.70;;;;;;4923200;28;20374;-69
2021/01/25 04:40:54;;;;;;;7.07;3.63;;;6.00;96.70;;;;;;4941301;28;20058;-69
2021/01/25 04:43:21;;;;;;;4.25;2.70;;;6.10;96.70;;;;;;4938640;28;20389;-69
2021/01/25 04:45:49;;;;;;;7.03;3.28;;;6.10;96.70;;;;;;4941215;28;20043;-69
2021/01/25 04:48:16;;;;;;;6.15;2.83;;;6.10;96.70;;;;;;4939364;28;20050;-68
2021/01/25 04:50:44;;;;;;;4.72;3.10;;;6.10;96.70;;;;;;4919729;28;20141;-69
2021/01/25 04:53:12;;;;;;;5.57;2.92;;;6.20;96.70;;;;;;4941927;28;20398;-69
2021/01/25 04:55:40;;;;;;;5.50;2.50;;;6.20;96.70;;;;;;4926275;28;20558;-69
2021/01/25 04:58:07;;;;;;;5.43;3.00;;;6.10;96.70;;;;;;4924814;29;20548;-69
2021/01/25 05:00:34;;;;;;;5.00;2.72;;;6.10;96.70;;;;;;4941787;28;20520;-69
2021/01/25 05:03:02;;;;;;;5.38;2.70;;;6.20;96.70;;;;;;4936294;28;20062;-69
2021/01/25 05:05:30;;;;;;;7.78;3.10;;;6.10;96.70;;;;;;4941248;28;20042;-69
2021/01/25 05:07:57;;;;;;;4.30;2.90;;;6.10;96.70;;;;;;4940111;28;20043;-69
2021/01/25 05:10:26;;;;;;;4.60;2.90;;;6.20;96.70;;;;;;4942556;28;20393;-69
2021/01/25 05:12:53;;;;;;;5.15;2.75;;;6.20;96.70;;;;;;4925543;29;20493;-69
2021/01/25 05:15:26;;;;;;;4.82;2.80;;;6.20;96.70;;;;;;4941868;28;20070;-69
2021/01/25 05:17:54;;;;;;;6.55;2.78;;;6.20;96.70;;;;;;4940319;28;20539;-69
2021/01/25 05:20:25;;;;;;;5.90;3.10;;;6.20;96.70;;;;;;4925862;28;20047;-69
2021/01/25 05:22:52;;;;;;;7.68;2.67;;;6.20;96.70;;;;;;4940437;28;20617;-69
2021/01/25 05:25:27;;;;;;;7.15;2.58;;;6.30;96.70;;;;;;4942246;28;20090;-69
2021/01/25 05:27:56;;;;;;;4.25;2.33;;;6.40;96.70;;;;;;4941501;28;20041;-68
2021/01/25 05:30:24;;;;;;;7.13;2.60;;;6.40;96.70;;;;;;4907205;28;20043;-69
2021/01/25 05:32:55;;;;;;;9.45;3.00;;;6.30;96.70;;;;;;4919174;28;20126;-69
2021/01/25 05:35:25;;;;;;;6.95;2.30;;;6.40;96.70;;;;;;4935987;28;20058;-68
2021/01/25 05:37:55;;;;;;;6.28;2.20;;;6.50;96.70;;;;;;4939493;28;20039;-69
2021/01/25 05:40:25;;;;;;;8.45;2.60;;;6.60;96.70;;;;;;4922969;29;20048;-69
2021/01/25 05:42:53;;;;;;;5.40;2.40;;;6.70;96.70;;;;;;4936008;28;20137;-69
2021/01/25 05:45:21;;;;;;;7.90;2.38;;;6.70;96.70;;;;;;4923862;28;20377;-69
2021/01/25 05:47:50;;;;;;;8.52;2.53;;;6.70;96.70;;;;;;4921714;28;20051;-69
2021/01/25 05:50:27;;;;;;;4.45;2.10;;;6.70;96.70;;;;;;4935822;28;20376;-69
2021/01/25 05:52:55;;;;;;;5.50;2.40;;;6.80;96.70;;;;;;4939330;28;20050;-69
2021/01/25 05:55:22;;;;;;;6.50;2.42;;;6.80;96.70;;;;;;4937939;28;20689;-69
2021/01/25 05:57:49;;;;;;;5.53;2.10;;;6.80;96.70;;;;;;4922099;29;20423;-69
2021/01/25 06:00:18;;;;;;;7.78;2.10;;;6.80;96.70;;;;;;4924105;28;20766;-69
2021/01/25 06:02:47;;;;;;;6.63;2.35;;;6.70;96.70;;;;;;4941319;28;20044;-69
2021/01/25 06:05:33;;;;;;;8.68;2.75;;;6.70;96.70;;;;;;4941706;28;20043;-69
2021/01/25 06:08:07;;;;;;;5.85;2.20;;;6.80;96.70;;;;;;4943838;28;20417;-69
2021/01/25 06:10:45;;;;;;;5.47;2.38;;;6.80;96.70;;;;;;4943421;28;20459;-69
2021/01/25 06:13:17;;;;;;;7.45;3.10;;;6.90;96.70;;;;;;4944903;28;20147;-69
2021/01/25 06:15:47;;;;;;;5.65;2.78;;;7.00;96.70;;;;;;4944751;28;20039;-69
2021/01/25 06:18:18;;;;;;;8.95;2.78;;;6.90;96.70;;;;;;4941403;28;20134;-69
2021/01/25 06:20:49;;;;;;;5.07;2.92;;;6.90;96.70;;;;;;4924161;29;20097;-69
2021/01/25 06:23:17;;;;;;;7.53;2.65;;;7.00;96.70;;;;;;4944583;28;20418;-69
2021/01/25 06:25:47;;;;;;;6.93;2.88;;;7.00;96.70;;;;;;4939143;28;20037;-69
2021/01/25 06:28:15;;;;;;;7.45;2.67;;;7.00;96.70;;;;;;4927025;28;20408;-69
2021/01/25 06:30:43;;;;;;;7.45;3.03;;;7.00;96.70;;;;;;4920216;29;20044;-69
2021/01/25 06:33:15;;;;;;;6.13;2.60;;;7.00;96.70;;;;;;4943969;28;20035;-69
2021/01/25 06:35:48;;;;;;;6.85;3.25;;;7.00;96.70;;;;;;4943965;28;20051;-69
2021/01/25 06:38:17;;;;;;;8.02;3.42;;;7.10;96.70;;;;;;4939649;28;20055;-69
2021/01/25 06:40:47;;;;;;;5.63;2.95;;;7.00;96.70;;;;;;4942646;28;20051;-69
2021/01/25 06:43:16;;;;;;;6.75;3.00;;;7.00;96.70;;;;;;4920253;28;20174;-69
2021/01/25 06:45:45;;;;;;;7.88;2.78;;;6.90;96.70;;;;;;4936326;28;20035;-69
2021/01/25 06:48:13;;;;;;;5.65;3.13;;;6.90;96.70;;;;;;4943053;28;20130;-69
2021/01/25 06:50:44;;;;;;;5.18;2.67;;;7.00;96.70;;;;;;4924454;28;20043;-69
2021/01/25 06:53:13;;;;;;;6.60;2.97;;;7.00;96.70;;;;;;4938370;28;20050;-69
2021/01/25 06:55:42;;;;;;;6.45;3.63;;;7.00;96.70;;;;;;4945172;28;20138;-69
2021/01/25 06:58:11;;;;;;;6.93;2.97;;;6.90;96.70;;;;;;4943256;28;20102;-69
2021/01/25 07:00:40;;;;;;;7.45;2.88;;;6.90;96.70;;;;;;4936481;28;20122;-69
2021/01/25 07:03:20;;;;;;;8.10;3.13;;;6.90;96.70;;;;;;4943596;28;20039;-69
2021/01/25 07:05:50;;;;;;;5.75;2.95;;;6.90;96.70;;;;;;4941673;28;20039;-69
2021/01/25 07:08:20;;;;;;;8.00;3.28;;;6.90;96.70;;;;;;4941692;28;20138;-69
2021/01/25 07:10:57;;;;;;;9.13;3.28;;;7.00;96.70;;;;;;4943591;28;20130;-69
2021/01/25 07:13:26;;;;;;;7.28;3.42;;;7.00;96.70;;;;;;4942428;28;20509;-69
2021/01/25 07:15:54;;;;;;;7.32;2.80;;;7.10;96.70;;;;;;4919652;29;20633;-69
2021/01/25 07:18:22;;;;;;;8.05;3.03;;;7.10;96.70;;;;;;4920395;28;20366;-69
2021/01/25 07:20:51;;;;;;;9.75;3.10;;;7.20;96.70;;;;;;4941700;28;20046;-69
2021/01/25 07:23:21;;;;;;;11.68;2.80;;;7.30;96.70;;;;;;4942716;28;20047;-69
2021/01/25 07:25:57;;;;;;;14.27;2.08;;;7.90;96.70;;;;;;4915974;29;20417;-69
2021/01/25 07:28:26;;;;;;;14.40;2.42;;;8.60;96.70;;;;;;4925049;29;20051;-69
2021/01/25 07:30:54;;;;;;;9.13;2.35;;;9.00;96.70;;;;;;4939257;28;20501;-69
2021/01/25 07:33:22;;;;;;;11.52;2.05;;;9.20;96.70;;;;;;4935499;28;20992;-69
2021/01/25 07:35:51;;;;;;;7.15;1.48;;;9.40;96.70;;;;;;4924434;28;20395;-69
2021/01/25 07:38:19;;;;;;;10.68;1.83;;;9.50;96.70;;;;;;4922476;29;20151;-69
2021/01/25 07:40:48;;;;;;;6.03;1.13;;;9.70;96.70;;;;;;4922579;28;20051;-69
2021/01/25 07:43:16;;;;;;;7.78;1.45;;;9.80;96.70;;;;;;4922329;28;20145;-69
2021/01/25 07:45:44;;;;;;;9.85;1.80;;;10.00;96.70;;;;;;4920516;28;20082;-69
2021/01/25 07:48:12;;;;;;;9.43;2.13;;;10.10;96.70;;;;;;4939748;28;20057;-70
2021/01/25 07:50:51;;;;;;;6.25;1.23;;;10.20;96.70;;;;;;4933727;28;20035;-69
2021/01/25 07:53:20;;;;;;;8.90;1.60;;;10.20;96.70;;;;;;4921728;29;20134;-69
2021/01/25 07:55:47;;;;;;;10.82;2.35;;;10.20;96.70;;;;;;4924266;28;20052;-69
2021/01/25 07:58:16;;;;;;;10.82;1.20;;;10.20;96.70;;;;;;4921058;29;20158;-69
2021/01/25 08:00:44;;;;;;;10.25;1.77;;;10.20;96.70;;;;;;4921637;29;20071;-69
2021/01/25 08:03:16;;;;;;;9.93;1.48;;;10.20;96.70;;;;;;4925868;28;20082;-69
2021/01/25 08:05:48;;;;;;;8.57;1.58;;;10.30;96.70;;;;;;4906263;29;20355;-69
2021/01/25 08:08:16;;;;;;;5.65;1.23;;;10.30;96.70;;;;;;4910148;29;20048;-69
2021/01/25 08:10:47;;;;;;;8.38;1.33;;;10.40;96.70;;;;;;4922661;28;20043;-69
2021/01/25 08:13:16;;;;;;;10.73;2.78;;;10.40;96.70;;;;;;4924465;29;20047;-69
2021/01/25 08:15:55;;;;;;;10.70;2.25;;;10.40;96.70;;;;;;4888108;29;20058;-69
2021/01/25 08:18:29;;;;;;;7.50;1.65;;;10.40;96.70;;;;;;4916391;29;20635;-69
2021/01/25 08:20:59;;;;;;;3.40;0.88;;;10.40;96.70;;;;;;4918401;29;20051;-70
2021/01/25 08:23:29;;;;;;;7.70;1.27;;;10.50;96.70;;;;;;4889231;29;20044;-69
2021/01/25 08:25:58;;;;;;;6.40;1.40;;;10.50;96.70;;;;;;4917686;29;20047;-68
2021/01/25 08:28:30;;;;;;;8.85;1.52;;;10.50;96.70;;;;;;4926086;29;20089;-69
2021/01/25 08:31:09;;;;;;;12.35;2.45;;;10.60;96.70;;;;;;4924684;29;20525;-68
2021/01/25 08:33:39;;;;;;;8.10;1.55;;;10.70;96.70;;;;;;4897448;29;20430;-68
2021/01/25 08:36:26;;;;;;;9.25;1.65;;;10.70;96.70;;;;;;4926163;29;20047;-68
2021/01/25 08:38:54;;;;;;;10.55;1.70;;;10.70;96.70;;;;;;4890142;29;20158;-71
2021/01/25 08:41:28;;;;;;;7.40;1.38;;;10.70;96.70;;;;;;4928348;29;20118;-70
2021/01/25 08:43:59;;;;;;;7.85;1.50;;;10.80;96.70;;;;;;4907333;29;20612;-71
2021/01/25 08:46:32;;;;;;;12.43;1.85;;;10.90;96.70;;;;;;4923649;29;20489;-71
2021/01/25 08:49:09;;;;;;;8.90;1.80;;;10.90;96.70;;;;;;4907602;29;20051;-70
2021/01/25 08:51:38;;;;;;;11.57;2.30;;;10.90;96.70;;;;;;4904667;29;20556;-70
2021/01/25 08:54:07;;;;;;;14.52;2.28;;;10.90;96.70;;;;;;4919545;29;20046;-71
2021/01/25 08:56:38;;;;;;;11.13;2.33;;;11.00;96.70;;;;;;4922702;29;20039;-70
2021/01/25 08:59:10;;;;;;;8.80;1.88;;;11.10;96.70;;;;;;4921764;28;20040;-69
2021/01/25 09:01:40;;;;;;;6.07;1.25;;;11.10;96.70;;;;;;4919107;28;20822;-70
2021/01/25 09:04:08;;;;;;;8.70;1.60;;;11.20;96.70;;;;;;4921772;29;20145;-70
2021/01/25 09:06:47;;;;;;;12.23;2.00;;;11.30;96.70;;;;;;4919757;29;20040;-70
2021/01/25 09:09:15;;;;;;;12.38;2.47;;;11.30;96.70;;;;;;4921673;29;20054;-70
2021/01/25 09:11:42;;;;;;;7.75;1.52;;;11.30;96.70;;;;;;4922282;29;20459;-70
2021/01/25 09:14:10;;;;;;;13.00;2.17;;;11.30;96.70;;;;;;4920939;28;20066;-71
2021/01/25 09:16:38;;;;;;;9.68;2.10;;;11.30;96.70;;;;;;4920926;29;20043;-71
2021/01/25 09:19:05;;;;;;;11.30;2.22;;;11.30;96.70;;;;;;4920040;29;20052;-70
2021/01/25 09:21:34;;;;;;;13.38;2.10;;;11.40;96.70;;;;;;4918791;28;20529;-69
2021/01/25 09:24:01;;;;;;;10.07;1.90;;;11.30;96.70;;;;;;4916937;29;20465;-70
2021/01/25 09:26:29;;;;;;;14.25;3.13;;;11.30;96.70;;;;;;4914712;29;20910;-72
2021/01/25 09:28:56;;;;;;;8.68;2.03;;;11.30;96.70;;;;;;4904103;29;20536;-71
2021/01/25 09:31:26;;;;;;;11.73;1.65;;;11.20;96.70;;;;;;4922207;29;20147;-71
2021/01/25 09:33:55;;;;;;;10.10;2.05;;;11.10;96.70;;;;;;4925855;29;20043;-71
2021/01/25 09:36:23;;;;;;;15.40;2.25;;;11.10;96.70;;;;;;4920398;29;20099;-70
2021/01/25 09:39:06;;;;;;;10.80;2.05;;;11.20;96.70;;;;;;4924298;29;20613;-71
2021/01/25 09:41:35;;;;;;;11.10;1.85;;;11.30;96.70;;;;;;4922043;29;20036;-70
2021/01/25 09:44:04;;;;;;;12.05;2.17;;;11.40;96.70;;;;;;4926227;29;20039;-70
2021/01/25 09:46:31;;;;;;;13.10;2.75;;;11.40;96.70;;;;;;4919497;29;20127;-70
2021/01/25 09:48:59;;;;;;;13.50;3.10;;;11.40;96.70;;;;;;4926430;29;20506;-70
2021/01/25 09:51:26;;;;;;;9.68;2.85;;;11.50;96.70;;;;;;4927746;29;20054;-70
2021/01/25 09:53:54;;;;;;;14.52;2.40;;;11.50;96.70;;;;;;4926491;28;20104;-70
2021/01/25 09:56:21;;;;;;;14.05;2.70;;;11.50;96.70;;;;;;4940042;28;20229;-70
2021/01/25 09:58:49;;;;;;;9.10;2.10;;;11.50;96.70;;;;;;4927931;28;20441;-71
2021/01/25 10:01:17;;;;;;;12.20;2.50;;;11.60;96.70;;;;;;4942840;28;20109;-70
2021/01/25 10:03:44;;;;;;;11.52;2.97;;;11.60;96.70;;;;;;4923657;28;20572;-71
2021/01/25 10:06:13;;;;;;;13.00;3.05;;;11.70;96.70;;;;;;4941494;28;20042;-70
2021/01/25 10:08:40;;;;;;;17.77;2.53;;;11.80;96.70;;;;;;4926026;28;20782;-70
2021/01/25 10:11:08;;;;;;;15.57;2.20;;;11.80;96.70;;;;;;4926610;28;20054;-71
2021/01/25 10:13:35;;;;;;;14.73;2.92;;;11.80;96.70;;;;;;4927852;28;20087;-71
2021/01/25 10:16:03;;;;;;;17.23;2.45;;;11.80;96.70;;;;;;4927252;28;20441;-70
2021/01/25 10:18:31;;;;;;;11.27;2.42;;;11.80;96.70;;;;;;4942052;28;20047;-70
2021/01/25 10:20:58;;;;;;;12.52;2.40;;;11.70;96.70;;;;;;4943808;28;20042;-70
2021/01/25 10:23:28;;;;;;;11.05;2.35;;;11.70;96.70;;;;;;4935747;28;20122;-70
2021/01/25 10:25:56;;;;;;;13.80;2.47;;;11.70;96.70;;;;;;4926609;29;20074;-69
2021/01/25 10:28:23;;;;;;;9.38;2.28;;;11.70;96.70;;;;;;4927326;28;20517;-70
2021/01/25 10:30:51;;;;;;;12.80;2.65;;;11.70;96.70;;;;;;4941282;28;20066;-69
2021/01/25 10:33:18;;;;;;;11.32;2.90;;;11.70;96.70;;;;;;4922736;28;20051;-70
2021/01/25 10:35:46;;;;;;;11.40;2.88;;;11.70;96.70;;;;;;4944401;28;20043;-71
2021/01/25 10:38:13;;;;;;;10.23;2.10;;;11.70;96.70;;;;;;4927019;28;20055;-71
2021/01/25 10:40:41;;;;;;;9.20;1.33;;;11.60;96.70;;;;;;4941846;28;20046;-71
2021/01/25 10:43:09;;;;;;;7.38;1.05;;;11.30;96.70;;;;;;4941835;28;20567;-71
2021/01/25 10:45:37;;;;;;;7.82;1.25;;;10.90;96.70;;;;;;4943095;28;21198;-70
2021/01/25 10:48:05;;;;;;;7.00;1.65;;;10.70;96.70;;;;;;4927649;28;20423;-70
2021/01/25 10:50:32;;;;;;;6.10;1.48;;;10.60;96.70;;;;;;4943136;28;20047;-69
2021/01/25 10:52:59;;;;;;;10.57;1.80;;;10.60;96.70;;;;;;4942470;28;20047;-70
2021/01/25 10:55:27;;;;;;;9.68;1.90;;;10.60;96.70;;;;;;4941743;28;20175;-70
2021/01/25 10:57:55;;;;;;;7.13;1.50;;;10.40;96.70;;;;;;4942948;28;21047;-70
2021/01/25 11:00:24;;;;;;;9.73;1.95;;;10.40;96.70;;;;;;4943431;28;20150;-70
2021/01/25 11:02:52;;;;;;;11.57;1.98;;;10.40;96.70;;;;;;4927541;29;20087;-69
2021/01/25 11:05:21;;;;;;;9.98;1.95;;;10.40;96.70;;;;;;4924976;28;20043;-70
2021/01/25 11:07:49;;;;;;;5.60;1.38;;;10.50;96.70;;;;;;4942978;28;20103;-70
2021/01/25 11:10:19;;;;;;;9.95;1.27;;;10.50;96.70;;;;;;4944275;28;20047;-71
2021/01/25 11:12:48;;;;;;;7.32;1.45;;;10.60;96.70;;;;;;4942700;28;20386;-69
2021/01/25 11:15:17;;;;;;;5.70;1.15;;;10.70;96.70;;;;;;4926380;29;20170;-69
2021/01/25 11:17:45;;;;;;;4.88;1.35;;;10.70;96.70;;;;;;4942336;28;20043;-70
2021/01/25 11:20:14;;;;;;;7.97;1.33;;;10.50;96.70;;;;;;4942652;28;20126;-69
2021/01/25 11:22:41;;;;;;;5.97;1.77;;;10.20;96.70;;;;;;4924334;28;20051;-71
2021/01/25 11:25:10;;;;;;;3.75;0.73;;;9.80;96.70;;;;;;4943638;28;20043;-70
2021/01/25 11:27:38;;;;;;;6.20;1.05;;;9.60;96.70;;;;;;4921364;28;20110;-71
2021/01/25 11:30:07;;;;;;;5.50;0.80;;;9.60;96.70;;;;;;4924785;28;20486;-70
2021/01/25 11:32:36;;;;;;;6.85;1.20;;;9.60;96.70;;;;;;4942292;28;20051;-70
2021/01/25 11:35:05;;;;;;;8.23;1.30;;;9.60;96.70;;;;;;4924845;28;20053;-70
2021/01/25 11:37:33;;;;;;;7.28;1.70;;;9.70;96.70;;;;;;4922220;29;20094;-70
2021/01/25 11:40:01;;;;;;;5.95;1.52;;;9.80;96.70;;;;;;4905857;28;20460;-70
2021/01/25 11:42:28;;;;;;;11.20;1.52;;;9.90;96.70;;;;;;4936643;28;20046;-70
2021/01/25 11:44:55;;;;;;;11.60;1.80;;;10.00;96.70;;;;;;4924498;28;20492;-70
2021/01/25 11:47:23;;;;;;;7.80;1.35;;;10.10;96.70;;;;;;4940756;28;20054;-70
2021/01/25 11:49:55;;;;;;;7.75;1.20;;;10.30;96.70;;;;;;4942922;28;20572;-70
2021/01/25 11:52:22;;;;;;;10.25;2.00;;;10.40;96.70;;;;;;4942976;28;20130;-70
2021/01/25 11:54:49;;;;;;;9.18;1.85;;;10.50;96.70;;;;;;4940865;28;20512;-70
2021/01/25 11:57:17;;;;;;;10.93;2.20;;;10.60;96.70;;;;;;4925873;28;20390;-70
2021/01/25 11:59:46;;;;;;;10.65;1.48;;;10.70;96.70;;;;;;4944121;28;20043;-70
2021/01/25 12:02:13;;;;;;;6.13;1.95;;;10.80;96.70;;;;;;4941672;28;20041;-70
2021/01/25 12:04:41;;;;;;;5.43;1.17;;;10.90;96.70;;;;;;4943414;28;20463;-69
2021/01/25 12:07:09;;;;;;;7.95;1.20;;;11.00;96.70;;;;;;4923936;29;20068;-69
2021/01/25 12:09:36;;;;;;;8.82;1.50;;;11.10;96.70;;;;;;4924443;28;20415;-69
2021/01/25 12:12:04;;;;;;;5.57;1.20;;;11.10;96.70;;;;;;4941546;28;20042;-69
2021/01/25 12:14:31;;;;;;;4.93;1.10;;;11.10;96.70;;;;;;4943201;28;20146;-70
2021/01/25 12:16:59;;;;;;;5.75;1.50;;;11.10;96.70;;;;;;4940810;28;20443;-69
2021/01/25 12:19:28;;;;;;;5.35;1.48;;;11.10;96.70;;;;;;4925692;29;20065;-70
2021/01/25 12:21:55;;;;;;;5.60;1.30;;;11.10;96.70;;;;;;4943832;28;20043;-70
2021/01/25 12:24:24;;;;;;;7.13;1.35;;;11.10;96.70;;;;;;4941114;28;20094;-70
2021/01/25 12:26:51;;;;;;;4.00;0.98;;;11.10;96.70;;;;;;4923519;29;20431;-69
2021/01/25 12:29:18;;;;;;;5.50;1.35;;;11.10;96.70;;;;;;4925121;28;20045;-70
2021/01/25 12:31:48;;;;;;;4.82;0.80;;;11.10;96.70;;;;;;4943118;28;20109;-71
2021/01/25 12:34:17;;;;;;;6.22;1.27;;;11.20;96.70;;;;;;4920952;29;20229;-70
2021/01/25 12:36:46;;;;;;;2.17;0.52;;;11.30;96.70;;;;;;4940316;28;20051;-70
2021/01/25 12:39:13;;;;;;;3.67;1.27;;;11.30;96.70;;;;;;4925080;29;20595;-69
2021/01/25 12:41:42;;;;;;;3.72;1.02;;;11.40;96.70;;;;;;4941677;28;20378;-69
2021/01/25 12:44:09;;;;;;;5.38;1.30;;;11.50;96.70;;;;;;4939139;28;20520;-70
2021/01/25 12:46:36;;;;;;;5.13;0.98;;;11.50;96.70;;;;;;4938887;28;20054;-69
2021/01/25 12:49:05;;;;;;;3.22;0.95;;;11.60;96.70;;;;;;4925716;29;20070;-70
2021/01/25 12:51:33;;;;;;;6.95;1.02;;;11.60;96.70;;;;;;4914330;28;20051;-69
2021/01/25 12:54:00;;;;;;;6.32;1.20;;;11.60;96.70;;;;;;4918694;28;20047;-70
2021/01/25 12:56:28;;;;;;;5.32;0.90;;;11.60;96.70;;;;;;4941867;28;20525;-69
2021/01/25 12:58:56;;;;;;;3.45;0.88;;;11.60;96.70;;;;;;4940332;28;20062;-70